createdAt,value
2022-09-11T00:02:17.653Z,94.80
2022-09-11T00:04:49.050Z,95.11
2022-09-11T00:07:20.400Z,95.59
2022-09-11T00:09:52.018Z,95.40
2022-09-11T00:12:23.351Z,95.29
2022-09-11T00:14:54.658Z,95.43
2022-09-11T00:17:26.023Z,95.12
2022-09-11T00:19:57.452Z,95.28
2022-09-11T00:22:28.750Z,94.97
2022-09-11T00:25:00.297Z,95.00
2022-09-11T00:27:31.637Z,95.35
2022-09-11T00:30:03.580Z,95.59
2022-09-11T00:32:34.881Z,95.64
2022-09-11T00:35:06.814Z,95.34
2022-09-11T00:37:38.213Z,95.54
2022-09-11T00:40:10.126Z,95.76
2022-09-11T00:42:42.298Z,95.11
2022-09-11T00:45:32.333Z,94.99
2022-09-11T00:48:04.048Z,95.14
2022-09-11T00:50:35.791Z,95.19
2022-09-11T00:53:09.990Z,95.81
2022-09-11T00:55:44.815Z,95.69
2022-09-11T00:58:19.574Z,95.83
2022-09-11T01:00:54.107Z,96.54
2022-09-11T01:03:27.597Z,96.45
2022-09-11T01:05:59.541Z,96.70
2022-09-11T01:08:32.066Z,96.99
2022-09-11T01:11:26.279Z,96.95
2022-09-11T01:14:05.041Z,96.89
2022-09-11T01:16:42.839Z,97.04
2022-09-11T01:19:39.362Z,97.12
2022-09-11T01:22:43.950Z,96.93
2022-09-11T01:25:30.317Z,97.13
2022-09-11T01:28:13.976Z,97.22
2022-09-11T01:30:54.343Z,97.08
2022-09-11T01:33:59.956Z,97.18
2022-09-11T01:36:53.178Z,97.42
2022-09-11T01:39:33.350Z,97.35
2022-09-11T01:42:10.752Z,97.41
2022-09-11T01:44:48.875Z,97.40
2022-09-11T01:47:22.110Z,97.66
2022-09-11T01:49:58.489Z,97.49
2022-09-11T01:52:50.281Z,97.64
2022-09-11T01:55:44.672Z,97.71
2022-09-11T01:58:23.193Z,97.39
2022-09-11T02:01:02.814Z,97.21
2022-09-11T02:03:39.286Z,97.54
2022-09-11T02:06:28.289Z,97.80
2022-09-11T02:09:06.147Z,97.33
2022-09-11T02:11:41.004Z,97.51
2022-09-11T02:14:18.176Z,97.33
2022-09-11T02:16:51.929Z,97.60
2022-09-11T02:19:27.515Z,97.68
2022-09-11T02:21:59.076Z,97.39
2022-09-11T02:24:30.549Z,97.23
2022-09-11T02:27:06.263Z,97.54
2022-09-11T02:29:39.108Z,97.54
2022-09-11T02:32:11.116Z,97.25
2022-09-11T02:34:45.286Z,96.95
2022-09-11T02:37:45.521Z,97.20
2022-09-11T02:40:31.304Z,97.47
2022-09-11T02:43:30.930Z,97.53
2022-09-11T02:46:24.175Z,97.52
2022-09-11T02:49:18.970Z,97.46
2022-09-11T02:52:12.832Z,97.46
2022-09-11T02:55:03.862Z,97.35
2022-09-11T02:57:42.426Z,97.61
2022-09-11T03:00:13.885Z,97.15
2022-09-11T03:02:47.563Z,97.42
2022-09-11T03:05:19.264Z,97.35
2022-09-11T03:07:50.644Z,96.94
2022-09-11T03:10:22.155Z,97.30
2022-09-11T03:12:55.201Z,97.13
2022-09-11T03:15:27.327Z,96.80
2022-09-11T03:17:58.717Z,96.83
2022-09-11T03:20:29.988Z,97.04
2022-09-11T03:23:01.390Z,96.63
2022-09-11T03:25:33.805Z,96.95
2022-09-11T03:28:05.623Z,96.61
2022-09-11T03:30:37.001Z,96.65
2022-09-11T03:33:08.880Z,96.60
2022-09-11T03:35:40.155Z,96.81
2022-09-11T03:38:12.245Z,96.55
2022-09-11T03:40:44.489Z,96.76
2022-09-11T03:43:16.645Z,96.62
2022-09-11T03:45:54.481Z,96.36
2022-09-11T03:48:26.351Z,96.72
2022-09-11T03:50:58.878Z,96.40
2022-09-11T03:53:32.888Z,96.46
2022-09-11T03:56:05.213Z,96.13
2022-09-11T03:58:37.096Z,96.33
2022-09-11T04:01:13.914Z,96.37
2022-09-11T04:03:45.376Z,96.18
2022-09-11T04:06:16.871Z,96.18
2022-09-11T04:08:48.180Z,96.66
2022-09-11T04:11:19.555Z,96.73
2022-09-11T04:13:51.828Z,96.52
2022-09-11T04:16:23.280Z,96.60
2022-09-11T04:18:55.550Z,96.49
2022-09-11T04:21:27.735Z,96.45
2022-09-11T04:24:00.297Z,96.32
2022-09-11T04:26:33.190Z,96.49
2022-09-11T04:29:04.597Z,96.47
2022-09-11T04:31:36.575Z,96.62
2022-09-11T04:34:09.446Z,96.37
2022-09-11T04:36:40.844Z,96.54
2022-09-11T04:39:12.196Z,96.23
2022-09-11T04:41:44.442Z,96.03
2022-09-11T04:44:15.906Z,96.27
2022-09-11T04:46:47.665Z,95.99
2022-09-11T04:49:19.225Z,96.06
2022-09-11T04:51:50.554Z,96.39
2022-09-11T04:54:22.074Z,96.38
2022-09-11T04:56:54.652Z,95.86
2022-09-11T04:59:26.019Z,95.90
2022-09-11T05:01:57.784Z,95.79
2022-09-11T05:04:29.220Z,95.84
2022-09-11T05:07:00.631Z,95.51
2022-09-11T05:09:31.990Z,95.71
2022-09-11T05:12:04.073Z,95.73
2022-09-11T05:14:35.781Z,95.40
2022-09-11T05:17:07.098Z,95.96
2022-09-11T05:19:38.891Z,95.59
2022-09-11T05:22:10.253Z,95.72
2022-09-11T05:24:41.712Z,95.59
2022-09-11T05:27:14.057Z,95.65
2022-09-11T05:29:45.769Z,95.68
2022-09-11T05:32:17.220Z,95.40
2022-09-11T05:34:48.940Z,95.68
2022-09-11T05:37:20.270Z,95.98
2022-09-11T05:39:51.921Z,95.87
2022-09-11T05:42:23.295Z,95.75
2022-09-11T05:44:55.013Z,95.60
2022-09-11T05:47:26.357Z,95.72
2022-09-11T05:49:57.826Z,95.87
2022-09-11T05:52:30.359Z,95.35
2022-09-11T05:55:02.010Z,95.61
2022-09-11T05:57:33.371Z,95.32
2022-09-11T06:00:05.579Z,95.53
2022-09-11T06:02:36.867Z,95.95
2022-09-11T06:05:09.031Z,95.39
2022-09-11T06:07:40.638Z,95.46
2022-09-11T06:10:12.524Z,95.58
2022-09-11T06:12:43.938Z,95.37
2022-09-11T06:15:36.356Z,95.30
2022-09-11T06:18:07.842Z,95.30
2022-09-11T06:20:40.294Z,95.17
2022-09-11T06:23:11.922Z,95.28
2022-09-11T06:25:43.261Z,95.16
2022-09-11T06:28:14.690Z,95.43
2022-09-11T06:30:49.050Z,95.44
2022-09-11T06:33:20.683Z,95.48
2022-09-11T06:35:58.640Z,95.25
2022-09-11T06:38:31.798Z,95.03
2022-09-11T06:41:05.430Z,94.75
2022-09-11T06:43:36.757Z,94.36
2022-09-11T06:46:19.898Z,94.81
2022-09-11T06:48:52.066Z,94.68
2022-09-11T06:51:23.906Z,95.03
2022-09-11T06:53:57.779Z,94.77
2022-09-11T06:56:32.312Z,94.66
2022-09-11T06:59:03.673Z,95.09
2022-09-11T07:01:35.318Z,94.48
2022-09-11T07:04:06.679Z,93.95
2022-09-11T07:06:38.574Z,94.54
2022-09-11T07:09:11.263Z,94.47
2022-09-11T07:11:44.864Z,94.35
2022-09-11T07:14:21.126Z,93.88
2022-09-11T07:16:55.160Z,93.86
2022-09-11T07:19:27.541Z,93.81
2022-09-11T07:21:59.163Z,93.92
2022-09-11T07:24:30.457Z,93.85
2022-09-11T07:27:01.861Z,93.33
2022-09-11T07:29:33.452Z,93.47
2022-09-11T07:32:04.866Z,93.26
2022-09-11T07:34:36.232Z,92.64
2022-09-11T07:37:07.588Z,92.79
2022-09-11T07:39:39.562Z,92.21
2022-09-11T07:42:11.013Z,92.16
2022-09-11T07:44:42.379Z,92.07
2022-09-11T07:47:13.765Z,92.09
2022-09-11T07:49:48.032Z,91.50
2022-09-11T07:52:20.532Z,91.56
2022-09-11T07:54:52.098Z,91.53
2022-09-11T07:57:24.193Z,91.55
2022-09-11T07:59:55.553Z,90.93
2022-09-11T08:02:26.952Z,91.06
2022-09-11T08:04:58.408Z,90.89
2022-09-11T08:07:29.716Z,90.82
2022-09-11T08:10:23.756Z,90.39
2022-09-11T08:12:55.703Z,90.50
2022-09-11T08:15:29.467Z,90.24
2022-09-11T08:18:00.902Z,90.32
2022-09-11T08:20:32.558Z,90.03
2022-09-11T08:23:03.986Z,89.91
2022-09-11T08:25:39.061Z,89.63
2022-09-11T08:28:11.175Z,89.55
2022-09-11T08:30:42.592Z,89.01
2022-09-11T08:33:14.032Z,89.06
2022-09-11T08:35:45.430Z,89.79
2022-09-11T08:38:17.836Z,89.35
2022-09-11T08:40:49.438Z,89.54
2022-09-11T08:43:33.303Z,89.23
2022-09-11T08:46:09.460Z,89.15
2022-09-11T08:49:10.772Z,89.01
2022-09-11T08:51:44.778Z,89.04
2022-09-11T08:54:27.588Z,88.64
2022-09-11T08:57:28.882Z,88.63
2022-09-11T09:00:19.445Z,88.52
2022-09-11T09:03:35.612Z,88.83
2022-09-11T09:06:43.361Z,88.40
2022-09-11T09:09:46.647Z,87.94
2022-09-11T09:12:36.825Z,87.96
2022-09-11T09:15:34.333Z,87.36
2022-09-11T09:18:17.700Z,86.53
2022-09-11T09:21:06.308Z,86.15
2022-09-11T09:24:08.401Z,85.99
2022-09-11T09:26:40.891Z,86.39
2022-09-11T09:29:22.800Z,85.37
2022-09-11T09:32:01.907Z,84.62
2022-09-11T09:34:37.369Z,83.84
2022-09-11T09:37:17.948Z,83.67
2022-09-11T09:39:50.573Z,82.53
2022-09-11T09:42:38.970Z,81.29
2022-09-11T09:45:39.741Z,81.40
2022-09-11T09:48:11.818Z,81.07
2022-09-11T09:50:44.673Z,80.48
2022-09-11T09:53:27.327Z,80.09
2022-09-11T09:56:00.488Z,79.81
2022-09-11T09:58:42.685Z,80.62
2022-09-11T10:01:39.512Z,80.00
2022-09-11T10:04:15.210Z,80.58
2022-09-11T10:06:48.660Z,80.66
2022-09-11T10:09:26.428Z,79.83
2022-09-11T10:12:04.106Z,79.50
2022-09-11T10:14:52.200Z,77.39
2022-09-11T10:17:32.864Z,76.73
2022-09-11T10:20:23.062Z,75.63
2022-09-11T10:22:55.554Z,76.56
2022-09-11T10:25:30.117Z,76.52
2022-09-11T10:28:11.306Z,76.20
2022-09-11T10:30:59.267Z,75.35
2022-09-11T10:33:40.500Z,75.22
2022-09-11T10:36:12.269Z,75.61
2022-09-11T10:38:48.189Z,75.43
2022-09-11T10:41:23.399Z,75.02
2022-09-11T10:44:04.103Z,72.82
2022-09-11T10:46:43.479Z,73.00
2022-09-11T10:49:21.823Z,72.63
2022-09-11T10:52:08.580Z,70.91
2022-09-11T10:54:55.299Z,70.34
2022-09-11T10:57:47.326Z,70.28
2022-09-11T11:00:22.747Z,70.82
2022-09-11T11:03:17.105Z,71.16
2022-09-11T11:06:07.407Z,71.42
2022-09-11T11:09:11.440Z,70.61
2022-09-11T11:11:59.463Z,71.14
2022-09-11T11:14:54.686Z,70.51
2022-09-11T11:17:45.112Z,70.42
2022-09-11T11:20:29.013Z,70.37
2022-09-11T11:23:16.274Z,70.73
2022-09-11T11:26:07.210Z,70.47
2022-09-11T11:28:54.181Z,70.60
2022-09-11T11:31:33.534Z,70.33
2022-09-11T11:34:16.958Z,69.41
2022-09-11T11:37:07.801Z,68.12
2022-09-11T11:39:57.305Z,67.28
2022-09-11T11:42:44.190Z,66.07
2022-09-11T11:45:27.682Z,66.17
2022-09-11T11:48:05.194Z,66.70
2022-09-11T11:50:44.415Z,67.13
2022-09-11T11:53:24.260Z,66.96
2022-09-11T11:56:37.643Z,66.81
2022-09-11T11:59:24.253Z,67.53
2022-09-11T12:02:02.265Z,67.02
2022-09-11T12:05:02.055Z,65.83
2022-09-11T12:07:36.697Z,66.08
2022-09-11T12:10:21.638Z,64.91
2022-09-11T12:12:58.452Z,64.99
2022-09-11T12:15:36.713Z,64.93
2022-09-11T12:18:11.104Z,64.21
2022-09-11T12:20:44.206Z,64.34
2022-09-11T12:23:30.671Z,63.72
2022-09-11T12:26:10.924Z,63.54
2022-09-11T12:28:42.579Z,63.15
2022-09-11T12:31:18.129Z,63.28
2022-09-11T12:33:51.322Z,62.96
2022-09-11T12:36:47.766Z,61.83
2022-09-11T12:39:24.997Z,63.00
2022-09-11T12:42:20.971Z,62.33
2022-09-11T12:44:52.270Z,62.90
2022-09-11T12:47:27.543Z,63.07
2022-09-11T12:50:07.337Z,62.88
2022-09-11T12:52:44.721Z,63.14
2022-09-11T12:55:28.358Z,62.12
2022-09-11T12:58:04.448Z,62.04
2022-09-11T13:00:43.122Z,62.54
2022-09-11T13:03:22.038Z,62.03
2022-09-11T13:05:57.048Z,61.41
2022-09-11T13:08:34.441Z,60.63
2022-09-11T13:11:38.107Z,59.97
2022-09-11T13:14:46.999Z,60.11
2022-09-11T13:17:30.578Z,60.56
2022-09-11T13:20:05.225Z,60.36
2022-09-11T13:22:37.462Z,60.06
2022-09-11T13:25:14.600Z,60.50
2022-09-11T13:27:52.566Z,60.41
2022-09-11T13:30:25.024Z,60.85
2022-09-11T13:33:07.760Z,60.11
2022-09-11T13:35:45.286Z,59.91
2022-09-11T13:38:35.659Z,60.13
2022-09-11T13:41:13.073Z,59.39
2022-09-11T13:43:48.679Z,58.96
2022-09-11T13:46:21.364Z,59.66
2022-09-11T13:48:57.830Z,59.67
2022-09-11T13:51:31.075Z,59.11
2022-09-11T13:54:14.356Z,59.20
2022-09-11T13:56:54.715Z,59.64
2022-09-11T13:59:44.483Z,59.34
2022-09-11T14:02:25.296Z,60.30
2022-09-11T14:05:22.053Z,60.04
2022-09-11T14:08:01.852Z,60.19
2022-09-11T14:10:42.368Z,60.37
2022-09-11T14:13:17.998Z,60.29
2022-09-11T14:15:51.882Z,59.62
2022-09-11T14:18:29.292Z,59.47
2022-09-11T14:21:04.006Z,59.58
2022-09-11T14:23:43.291Z,59.99
2022-09-11T14:26:23.061Z,60.65
2022-09-11T14:29:00.234Z,60.92
2022-09-11T14:31:46.232Z,61.11
2022-09-11T14:34:20.793Z,60.95
2022-09-11T14:37:07.884Z,60.73
2022-09-11T14:39:57.985Z,59.61
2022-09-11T14:42:31.692Z,59.84
2022-09-11T14:45:25.877Z,59.25
2022-09-11T14:47:57.221Z,59.38
2022-09-11T14:50:28.641Z,59.19
2022-09-11T14:52:59.937Z,59.49
2022-09-11T14:55:31.378Z,59.71
2022-09-11T14:58:03.823Z,60.14
2022-09-11T15:00:35.165Z,60.42
2022-09-11T15:03:06.603Z,60.30
2022-09-11T15:05:38.576Z,60.41
2022-09-11T15:08:10.756Z,60.29
2022-09-11T15:10:42.671Z,60.22
2022-09-11T15:13:14.448Z,59.86
2022-09-11T15:15:46.078Z,59.44
2022-09-11T15:18:18.307Z,59.39
2022-09-11T15:20:49.672Z,58.97
2022-09-11T15:23:21.100Z,58.65
2022-09-11T15:26:01.621Z,58.63
2022-09-11T15:28:33.150Z,58.61
2022-09-11T15:31:04.601Z,58.97
2022-09-11T15:33:36.115Z,58.85
2022-09-11T15:36:07.958Z,59.14
2022-09-11T15:38:40.980Z,59.21
2022-09-11T15:41:12.415Z,59.03
2022-09-11T15:43:45.173Z,58.92
2022-09-11T15:46:18.814Z,59.18
2022-09-11T15:48:50.583Z,59.35
2022-09-11T15:51:23.938Z,59.76
2022-09-11T15:54:02.462Z,59.95
2022-09-11T15:56:35.949Z,60.03
2022-09-11T15:59:08.107Z,60.09
2022-09-11T16:01:40.895Z,60.49
2022-09-11T16:04:14.905Z,60.68
2022-09-11T16:06:48.456Z,60.08
2022-09-11T16:09:29.098Z,60.22
2022-09-11T16:12:01.697Z,60.59
2022-09-11T16:14:35.346Z,60.73
2022-09-11T16:17:07.719Z,61.11
2022-09-11T16:19:39.087Z,60.88
2022-09-11T16:22:10.373Z,61.36
2022-09-11T16:24:42.434Z,61.25
2022-09-11T16:27:13.754Z,61.49
2022-09-11T16:30:25.850Z,61.49
2022-09-11T16:32:39.230Z,61.46
2022-09-11T16:35:13.340Z,61.48
2022-09-11T16:37:44.913Z,62.12
2022-09-11T16:40:16.451Z,61.99
2022-09-11T16:42:47.895Z,62.09
2022-09-11T16:45:19.716Z,62.66
2022-09-11T16:47:51.762Z,62.06
2022-09-11T16:50:24.291Z,62.83
2022-09-11T16:52:55.691Z,62.77
2022-09-11T16:55:27.060Z,62.47
2022-09-11T16:57:58.846Z,62.48
2022-09-11T17:00:30.230Z,62.88
2022-09-11T17:03:01.599Z,62.98
2022-09-11T17:05:32.921Z,63.47
2022-09-11T17:08:04.664Z,63.34
2022-09-11T17:10:36.085Z,63.54
2022-09-11T17:13:08.104Z,63.70
2022-09-11T17:15:43.527Z,63.59
2022-09-11T17:18:15.978Z,64.20
2022-09-11T17:20:47.471Z,64.27
2022-09-11T17:23:19.290Z,64.88
2022-09-11T17:25:50.980Z,64.95
2022-09-11T17:28:22.291Z,65.02
2022-09-11T17:30:53.634Z,65.40
2022-09-11T17:33:25.917Z,66.08
2022-09-11T17:35:57.304Z,66.36
2022-09-11T17:38:28.760Z,66.38
2022-09-11T17:41:03.853Z,66.85
2022-09-11T17:43:36.470Z,67.14
2022-09-11T17:46:13.552Z,67.49
2022-09-11T17:48:45.955Z,67.58
2022-09-11T17:51:21.218Z,68.24
2022-09-11T17:53:56.217Z,68.71
2022-09-11T17:56:32.396Z,68.94
2022-09-11T17:59:03.789Z,69.24
2022-09-11T18:01:35.236Z,69.82
2022-09-11T18:04:07.007Z,69.90
2022-09-11T18:06:38.928Z,70.25
2022-09-11T18:09:16.106Z,70.58
2022-09-11T18:11:49.867Z,70.89
2022-09-11T18:14:21.537Z,71.04
2022-09-11T18:16:52.904Z,71.17
2022-09-11T18:19:24.639Z,71.63
2022-09-11T18:21:56.071Z,71.92
2022-09-11T18:24:29.950Z,72.36
2022-09-11T18:27:01.490Z,72.56
2022-09-11T18:29:33.063Z,73.00
2022-09-11T18:32:04.566Z,72.81
2022-09-11T18:34:36.049Z,73.15
2022-09-11T18:37:07.741Z,73.23
2022-09-11T18:39:40.348Z,73.63
2022-09-11T18:42:11.731Z,73.57
2022-09-11T18:44:44.322Z,73.54
2022-09-11T18:47:15.655Z,73.72
2022-09-11T18:49:48.944Z,74.56
2022-09-11T18:52:25.439Z,74.73
2022-09-11T18:55:00.078Z,74.73
2022-09-11T18:57:31.572Z,75.29
2022-09-11T19:00:03.566Z,75.18
2022-09-11T19:02:36.255Z,75.66
2022-09-11T19:05:08.198Z,75.57
2022-09-11T19:07:40.027Z,75.81
2022-09-11T19:10:12.424Z,75.71
2022-09-11T19:12:46.890Z,76.22
2022-09-11T19:15:19.170Z,76.56
2022-09-11T19:17:51.618Z,76.42
2022-09-11T19:20:22.936Z,76.65
2022-09-11T19:22:54.893Z,76.58
2022-09-11T19:25:29.796Z,76.50
2022-09-11T19:28:04.653Z,76.71
2022-09-11T19:30:39.026Z,77.45
2022-09-11T19:33:12.825Z,77.03
2022-09-11T19:35:44.133Z,77.42
2022-09-11T19:38:16.602Z,77.94
2022-09-11T19:40:48.784Z,78.08
2022-09-11T19:43:24.874Z,78.01
2022-09-11T19:46:06.382Z,78.17
2022-09-11T19:48:38.267Z,78.47
2022-09-11T19:51:27.303Z,78.46
2022-09-11T19:54:00.726Z,78.79
2022-09-11T19:56:33.891Z,78.80
2022-09-11T19:59:07.098Z,78.82
2022-09-11T20:01:38.452Z,79.32
2022-09-11T20:04:11.304Z,79.22
2022-09-11T20:09:30.567Z,79.59
2022-09-11T20:12:03.277Z,79.44
2022-09-11T20:14:34.557Z,80.15
2022-09-11T20:17:08.798Z,79.60
2022-09-11T20:19:44.592Z,79.73
2022-09-11T20:22:15.922Z,79.79
2022-09-11T20:24:49.679Z,79.70
2022-09-11T20:27:20.937Z,79.40
2022-09-11T20:29:52.326Z,79.81
2022-09-11T20:32:23.848Z,80.18
2022-09-11T20:34:55.225Z,80.00
2022-09-11T20:37:26.532Z,80.43
2022-09-11T20:39:58.081Z,80.66
2022-09-11T20:42:29.828Z,80.91
2022-09-11T20:45:01.207Z,80.56
2022-09-11T20:47:32.652Z,80.81
2022-09-11T20:50:04.838Z,80.80
2022-09-11T20:52:39.526Z,81.08
2022-09-11T20:55:11.095Z,81.02
2022-09-11T20:57:42.478Z,81.36
2022-09-11T21:00:14.447Z,81.05
2022-09-11T21:02:45.857Z,81.31
2022-09-11T21:05:17.225Z,81.27
2022-09-11T21:07:48.591Z,81.80
2022-09-11T21:10:19.977Z,81.77
2022-09-11T21:12:52.347Z,81.58
2022-09-11T21:15:23.641Z,81.71
2022-09-11T21:17:55.206Z,81.45
2022-09-11T21:20:26.453Z,81.47
2022-09-11T21:22:57.824Z,81.67
2022-09-11T21:25:29.145Z,81.39
2022-09-11T21:28:00.615Z,81.67
2022-09-11T21:30:31.972Z,81.77
2022-09-11T21:33:03.418Z,81.76
2022-09-11T21:35:36.762Z,81.57
2022-09-11T21:38:08.718Z,81.58
2022-09-11T21:40:40.015Z,81.89
2022-09-11T21:43:11.296Z,82.02
2022-09-11T21:45:45.218Z,81.83
2022-09-11T21:48:16.589Z,82.20
2022-09-11T21:50:48.182Z,82.57
2022-09-11T21:53:20.256Z,82.52
2022-09-11T21:55:51.621Z,82.72
2022-09-11T21:58:23.106Z,82.73
2022-09-11T22:00:54.512Z,82.91
2022-09-11T22:03:26.558Z,83.01
2022-09-11T22:05:58.145Z,83.04
2022-09-11T22:08:29.452Z,82.79
2022-09-11T22:11:03.157Z,82.93
2022-09-11T22:13:35.575Z,83.02
2022-09-11T22:16:12.858Z,83.20
2022-09-11T22:18:48.525Z,83.27
2022-09-11T22:21:20.356Z,83.10
2022-09-11T22:23:52.412Z,83.43
2022-09-11T22:26:24.030Z,83.23
2022-09-11T22:28:57.290Z,83.31
2022-09-11T22:31:28.881Z,83.18
2022-09-11T22:34:00.304Z,83.60
2022-09-11T22:36:32.266Z,83.41
2022-09-11T22:39:05.350Z,83.27
2022-09-11T22:41:36.691Z,83.10
2022-09-11T22:44:10.979Z,83.10
2022-09-11T22:46:45.723Z,83.39
2022-09-11T22:49:19.546Z,83.41
2022-09-11T22:51:50.984Z,83.25
2022-09-11T22:54:22.414Z,83.46
2022-09-11T22:56:53.822Z,83.40
2022-09-11T22:59:26.363Z,83.66
2022-09-11T23:01:58.286Z,83.84
2022-09-11T23:04:29.715Z,83.58
2022-09-11T23:07:16.891Z,83.68
2022-09-11T23:09:49.604Z,83.81
2022-09-11T23:12:20.931Z,83.70
2022-09-11T23:14:54.162Z,83.75
2022-09-11T23:17:26.746Z,84.00
2022-09-11T23:19:58.083Z,83.84
2022-09-11T23:22:29.533Z,83.72
2022-09-11T23:25:00.997Z,84.15
2022-09-11T23:27:33.090Z,84.07
2022-09-11T23:30:05.002Z,84.01
2022-09-11T23:32:41.169Z,84.14
2022-09-11T23:35:13.191Z,83.98
2022-09-11T23:37:45.570Z,84.30
2022-09-11T23:40:17.557Z,84.21
2022-09-11T23:42:48.990Z,84.05
2022-09-11T23:45:20.729Z,84.17
2022-09-11T23:47:52.131Z,84.21
2022-09-11T23:50:23.381Z,84.15
2022-09-11T23:52:54.758Z,83.88
2022-09-11T23:55:26.198Z,84.02
2022-09-11T23:57:57.591Z,84.21
